zaterdag 25 november 2017

UAV Forecast ™

Het weer echt gericht op Drones 


SkyVector

Wat is er zoal leuk aan SkyVector weerstations over de hele wereld , turbulentie in de lucht onweerszones en nog veel meer zijn te vinden op deze site. De site is wel gericht op de luchtvaart maar daar moet het juist allemaal correct zijn.


dinsdag 12 juli 2016

12/07/2016 actueel weerbeeld in Belgie


METAR 

METAR EBAW 121950Z 29004KT 260V320 9999 FEW024 SCT044 17/11 Q1013 NOSIG= 

TAF FC 

TAF EBAW 121730Z 1218/1303 25005KT 9999 FEW038=

11km Boven de Stille Oceaan


Op 11km boven de Stille Oceaan wist piloot Santiago Borja deze onheilspellende onweerswolk vast te leggen. Hij cirkelde hiervoor rond de storm, toen hij op weg was naar Zuid-Amerika en gebruikte zijn Nikon D750 om het spektakel vast te leggen.


Bron: Zoom.nl